Flight Track Log - Related Links

Times and Time Zones

All times are in EDT time to prevent confusion due to time zone crossing. See the N675MC flight status page for this flight to view local times or setup timezone preferences in your user account.

Time Position Orientation Groundspeed Altitude Reporting Facility
EDT Latitude Longitude Course Direction KTS MPH feet Rate Location/Type
Wed 06:40:58 PM 36.1781 -95.8836 75° East 169 194 1,500  Level Kansas City Center
Wed 06:41:23 PM 36.1572 -95.8864 186° South 186 214 2,000 1,459 Climbing Kansas City Center
Wed 06:42:12 PM 36.1106 -95.8758 170° South 240 276 3,300 1,727 Climbing Kansas City Center
Wed 06:42:29 PM 36.1025 -95.8572 118° Southeast 239 275 3,900 1,839 Climbing Kansas City Center
Wed 06:43:14 PM 36.1003 -95.7953 93° East 249 287 5,200 2,164 Climbing Kansas City Center
Wed 06:43:30 PM 36.0989 -95.7672 93° East 255 293 6,100 1,935 Climbing Kansas City Center
Wed 06:44:00 PM 36.1057 -95.3512 71° East  Level Estimated
Wed 06:44:16 PM 36.0956 -95.7075 94° East 253 291 7,200  Level Kansas City Center
Wed 06:45:00 PM 36.0962 -95.2145 95° East  Level FlightAware Approximate
Wed 06:45:18 PM 36.0900 -95.6083 94° East 281 323 9,800  Level Kansas City Center
Wed 06:46:00 PM 36.0724 -95.0805 75° East  Level Estimated
Wed 06:46:20 PM 36.0844 -95.5008 94° East 310 357 10,900  Level Kansas City Center
Wed 06:47:22 PM 36.0736 -95.3575 95° East 346 398 13,400 2,226 Climbing Kansas City Center
Wed 06:48:24 PM 36.0569 -95.2353 100° East 359 413 15,500 1,597 Climbing Kansas City Center
Wed 06:49:26 PM 36.0392 -95.1083 100° East 372 428 16,700 1,113 Climbing Kansas City Center
Wed 06:50:28 PM 36.0172 -94.9700 101° East 402 463 17,800 1,161 Climbing Kansas City Center
Wed 06:51:30 PM 35.9914 -94.8272 103° East 421 484 19,100 1,488 Climbing Kansas City Center
Wed 06:52:33 PM 35.9628 -94.6500 101° East 434 499 20,900 1,468 Climbing Kansas City Center
Wed 06:53:04 PM 35.9556 -94.5906 99° East 430 495 21,400 1,239 Climbing Memphis Center
Wed 06:54:05 PM 35.9333 -94.4383 100° East 435 501 22,800 1,350 Climbing Memphis Center
Wed 06:55:04 PM 35.9153 -94.2886 98° East 440 506 24,100 3,126 Climbing Memphis Center
Wed 06:56:04 PM 35.8931 -94.1339 100° East 446 513 29,000 1,190 Climbing Memphis Center
Wed 06:57:05 PM 35.8667 -93.9689 101° East 451 519 26,500 -700 Descending Memphis Center
Wed 06:58:04 PM 35.8481 -93.8142 98° East 451 519 27,600 1,059 Climbing Memphis Center
Wed 06:59:04 PM 35.8250 -93.6647 101° East 451 519 28,600 700 Climbing Memphis Center
Wed 07:00:04 PM 35.8247 -93.5111 90° East 446 513 29,000 200 Climbing Memphis Center
Wed 07:01:04 PM 35.8225 -93.3497 91° East 451 519 29,000  Level Memphis Center
Wed 07:02:04 PM 35.8242 -93.1886 89° East 462 532 29,000  Level Memphis Center
Wed 07:03:04 PM 35.8236 -93.0325 90° East 462 532 29,000  Level Memphis Center
Wed 07:04:05 PM 35.8206 -92.8736 91° East 462 532 29,000  Level Memphis Center
Wed 07:05:04 PM 35.8175 -92.7147 91° East 462 532 29,000  Level Memphis Center
Wed 07:06:04 PM 35.8139 -92.5586 92° East 462 532 29,000  Level Memphis Center
Wed 07:07:04 PM 35.8000 -92.3994 96° East 462 532 29,000  Level Memphis Center
Wed 07:08:04 PM 35.7711 -92.2428 103° East 462 532 29,000 100 Level Memphis Center
Wed 07:09:04 PM 35.7317 -92.0908 108° East 467 537 29,200 400 Climbing Memphis Center
Wed 07:10:04 PM 35.6917 -91.9572 110° East 472 543 29,800 800 Climbing Memphis Center
Wed 07:11:04 PM 35.6436 -91.8081 112° Southeast 472 543 30,800 1,000 Climbing Memphis Center
Wed 07:12:04 PM 35.5950 -91.6617 112° Southeast 472 543 31,800 900 Climbing Memphis Center
Wed 07:13:04 PM 35.5444 -91.5156 113° Southeast 467 537 32,600 750 Climbing Memphis Center
Wed 07:14:04 PM 35.4914 -91.3744 115° Southeast 454 522 33,300 600 Climbing Memphis Center
Wed 07:15:04 PM 35.4342 -91.2208 115° Southeast 449 517 33,800 450 Climbing Memphis Center
Wed 07:16:04 PM 35.3850 -91.0906 115° Southeast 455 524 34,200 450 Climbing Memphis Center
Wed 07:17:04 PM 35.3253 -90.9347 115° Southeast 455 524 34,700 400 Climbing Memphis Center
Wed 07:18:04 PM 35.2736 -90.7919 114° Southeast 455 524 35,000 150 Climbing Memphis Center
Wed 07:19:04 PM 35.2219 -90.6469 114° Southeast 460 529 35,000  Level Memphis Center
Wed 07:20:04 PM 35.1806 -90.5019 109° East 455 524 35,000  Level Memphis Center
Wed 07:21:04 PM 35.1431 -90.3519 107° East 455 524 35,000  Level Memphis Center
Wed 07:22:04 PM 35.1053 -90.2072 108° East 449 517 35,000  Level Memphis Center
Wed 07:23:04 PM 35.0611 -90.0603 110° East 455 524 35,000  Level Memphis Center
Wed 07:24:04 PM 35.0253 -89.9286 108° East 455 524 35,000  Level Memphis Center
Wed 07:25:04 PM 35.0017 -89.7714 100° East 462 532 35,000  Level Memphis Center
Wed 07:26:04 PM 34.9675 -89.5944 103° East 476 548 35,000  Level Memphis Center
Wed 07:27:04 PM 34.9456 -89.4425 100° East 470 541 35,000  Level Memphis Center
Wed 07:28:04 PM 34.9275 -89.2933 98° East 463 533 35,000  Level Memphis Center
Wed 07:29:04 PM 34.9075 -89.1392 99° East 458 527 35,000  Level Memphis Center
Wed 07:30:04 PM 34.8831 -88.9900 101° East 458 527 35,000  Level Memphis Center
Wed 07:31:04 PM 34.8561 -88.8386 102° East 458 527 35,000  Level Memphis Center
Wed 07:32:04 PM 34.8272 -88.6900 103° East 452 520 35,000  Level Memphis Center
Wed 07:33:04 PM 34.8044 -88.5539 101° East 452 520 35,000  Level Memphis Center
Wed 07:34:04 PM 34.7811 -88.3975 100° East 446 513 35,000  Level Memphis Center
Wed 07:35:04 PM 34.7619 -88.2439 99° East 446 513 35,000 -150 Level Memphis Center
Wed 07:36:04 PM 34.7425 -88.0978 99° East 464 534 34,700 -500 Descending Memphis Center
Wed 07:37:04 PM 34.7231 -87.9517 99° East 458 527 34,000 -800 Descending Memphis Center
Wed 07:38:04 PM 34.7078 -87.8031 97° East 447 514 33,100 -324 Descending Memphis Center
Wed 07:40:09 PM 34.6706 -87.4889 98° East 466 536 33,000 -32 Descending Atlanta Center
Wed 07:41:09 PM 34.6481 -87.3161 99° East 471 542 33,000  Level Atlanta Center
Wed 07:42:09 PM 34.6186 -87.1661 103° East 466 536 33,000  Level Atlanta Center
Wed 07:43:09 PM 34.5828 -87.0158 106° East 461 531 33,000  Level Atlanta Center
Wed 07:44:09 PM 34.5444 -86.8683 107° East 461 531 33,000  Level Atlanta Center
Wed 07:45:09 PM 34.5039 -86.7208 108° East 461 531 33,000  Level Atlanta Center
Wed 07:46:09 PM 34.4631 -86.5733 109° East 461 531 33,000 -50 Level Atlanta Center
Wed 07:47:09 PM 34.4181 -86.4283 111° Southeast 466 536 32,900 -650 Descending Atlanta Center
Wed 07:48:09 PM 34.3728 -86.2836 111° Southeast 466 536 31,700 -1,700 Descending Atlanta Center
Wed 07:49:09 PM 34.3314 -86.1417 109° East 461 531 29,500 -2,250 Descending Atlanta Center
Wed 07:50:09 PM 34.2983 -86.0000 106° East 444 511 27,200 -2,400 Descending Atlanta Center
Wed 07:51:09 PM 34.2733 -85.8561 102° East 438 504 24,700 -2,400 Descending Atlanta Center
Wed 07:52:09 PM 34.2667 -85.7406 94° East 412 474 22,400 -2,400 Descending Atlanta Center
Wed 07:53:09 PM 34.2539 -85.6069 97° East 407 468 19,900 -2,400 Descending Atlanta Center
Wed 07:54:09 PM 34.2450 -85.4786 95° East 390 449 17,600 -2,250 Descending Atlanta Center
Wed 07:55:09 PM 34.2275 -85.3603 100° East 366 421 15,400 -1,800 Descending Atlanta Center
Wed 07:56:09 PM 34.2081 -85.2344 101° East 361 415 14,000 -1,200 Descending Atlanta Center
Wed 07:57:09 PM 34.1756 -85.1286 110° East 341 392 13,000 -500 Descending Atlanta Center
Wed 07:58:09 PM 34.1283 -85.0450 124° Southeast 311 358 13,000 -100 Level Atlanta Center
Wed 07:59:09 PM 34.0578 -84.9892 147° Southeast 295 339 12,800 -900 Descending Atlanta Center
Wed 08:00:09 PM 33.9914 -84.9283 143° Southeast 303 349 11,200 -1,450 Descending Atlanta Center
Wed 08:01:09 PM 33.9314 -84.8600 137° Southeast 303 349 9,900 -947 Descending Atlanta Center
Wed 08:02:03 PM 33.8667 -84.8167 151° Southeast 266 306 9,400 -895 Descending Atlanta TRACON
Wed 08:03:03 PM 33.8000 -84.8167 180° South 243 280 8,200 -1,200 Descending Atlanta TRACON
Wed 08:04:03 PM 33.7333 -84.8167 180° South 231 266 7,000 -1,050 Descending Atlanta TRACON
Wed 08:05:03 PM 33.7000 -84.7500 121° Southeast 231 266 6,100 -947 Descending Atlanta TRACON
Wed 08:05:57 PM 33.6667 -84.7000 129° Southeast 224 258 5,200 -1,000 Descending Atlanta TRACON
Wed 08:07:03 PM 33.6500 -84.6333 107° East 189 217 4,100 -1,000 Descending Atlanta TRACON
Wed 08:08:03 PM 33.6500 -84.5833 90° East 168 193 3,100 -850 Descending Atlanta TRACON
Wed 08:09:03 PM 33.6500 -84.5167 90° East 150 173 2,400 -737 Descending Atlanta TRACON
Wed 08:09:57 PM 33.6500 -84.4833 90° East 142 163 1,700 -778 Descending Atlanta TRACON

Login

Don't have an account? Register now (free) for customized features, flight alerts, and more!